Aérodrome :
LOGIN :

S'inscrire | Disclaimer

   EN    FR    IT 

 










Légende :    VFR   VFR Marginal   IFR   IFR Intensif   IFR Très Intensif
Visi : 
Plafond : 
>= 8 km
>= 3000ft
5 à 8 km
1000 à 3000 ft
1500m à 5 km
500 à 1000 ft
800 à 1500m
200 à 500 ft
< 800m
< 200 ft
Symboles :   Orages  Brouillard  Fortes neiges  Fortes précipitations  Vent > 20 kt
SIGMETs :   Divers  Orages  Givrage  Turbulence  Onde Orograph.  Cendres Volcan.







- Altitude de l'aérodrome : 13 ft
- Code IATA : LYX
- Voir les cartes d'approche


EGMD - Lydd

DERNIER METAR :
  • 220050Z AUTO 10006KT 9999 NCD 19/16 Q1006

METARs EXPIRÉS :
  • 220020Z AUTO 10006KT 9999 NCD 18/16 Q1006
  • 212350Z AUTO 09007KT 9999 NCD 19/16 Q1007
  • 212320Z AUTO 10008KT 9999 NCD 18/16 Q1007
  • 212250Z AUTO 10008KT 9999 NCD 18/16 Q1007
  • 212220Z AUTO 10008KT 9999 NCD 18/16 Q1007

TAF COR TAF EGMD
Valide du 22 à 00h jusqu'au 22 à 09h UTC


212359Z 2200/2209 12010KT CAVOK
TEMPO 2203/2209 6000 RA SHRA
PROB30
TEMPO 2203/2207 4000 +SHRA TSRA BKN040CB
BECMG 2206/2209 19012KT
ATIS : +44 1797 322 422
Pas de NOTAMs connus pour ce terrain.



MET'MAP, la Météo Aéronautique d'un coup d'oeil ! - Copyright ORBIFLY Décembre 2007 - Disclaimer

ORBIFLY MET'MAP TEAM :

Programmation & Développement : Alexandra Zaïnal
Conception & Développement : Baudouin d'Aumeries
Co-Programmation & Développement : Marc-Olivier Méhu
Soutien technique & logistique : Manuel Goepfert

Contact : metmap@orbifly.com




SOURCES & CREDITS :

   NOAA